createdAt,value
2018-12-24T00:02:21.381Z,101454.91
2018-12-24T00:04:49.802Z,101463.78
2018-12-24T00:07:18.337Z,101465.14
2018-12-24T00:09:46.709Z,101474.84
2018-12-24T00:12:15.097Z,101474.84
2018-12-24T00:14:43.512Z,101477.00
2018-12-24T00:17:11.964Z,101484.82
2018-12-24T00:19:40.361Z,101492.34
2018-12-24T00:22:08.705Z,101490.18
2018-12-24T00:24:37.083Z,101505.28
2018-12-24T00:27:05.503Z,101505.28
2018-12-24T00:29:33.848Z,101501.73
2018-12-24T00:32:02.220Z,101499.59
2018-12-24T00:34:30.564Z,101511.71
2018-12-24T00:36:58.918Z,101512.52
2018-12-24T00:39:27.341Z,101521.67
2018-12-24T00:41:55.687Z,101525.17
2018-12-24T00:44:24.182Z,101530.81
2018-12-24T00:46:52.608Z,101530.81
2018-12-24T00:49:21.008Z,101535.93
2018-12-24T00:51:49.374Z,101535.93
2018-12-24T00:54:17.719Z,101539.98
2018-12-24T00:56:46.097Z,101549.39
2018-12-24T00:59:14.494Z,101555.58
2018-12-24T01:01:42.849Z,101555.58
2018-12-24T01:04:11.300Z,101562.59
2018-12-24T01:06:39.889Z,101566.92
2018-12-24T01:09:08.236Z,101570.16
2018-12-24T01:11:36.581Z,101571.48
2018-12-24T01:14:05.042Z,101585.44
2018-12-24T01:16:33.395Z,101586.75
2018-12-24T01:19:01.746Z,101594.58
2018-12-24T01:21:30.138Z,101603.97
2018-12-24T01:23:58.494Z,101608.50
2018-12-24T01:26:26.922Z,101608.20
2018-12-24T01:28:55.294Z,101616.28
2018-12-24T01:31:23.841Z,101626.50
2018-12-24T01:33:52.206Z,101624.07
2018-12-24T01:36:20.572Z,101638.39
2018-12-24T01:38:48.989Z,101634.64
2018-12-24T01:41:17.344Z,101651.05
2018-12-24T01:43:45.776Z,101657.00
2018-12-24T01:46:14.127Z,101671.27
2018-12-24T01:48:42.623Z,101667.20
2018-12-24T01:51:13.867Z,101678.23
2018-12-24T01:53:42.256Z,101693.55
2018-12-24T01:56:10.655Z,101693.55
2018-12-24T01:58:39.010Z,101688.17
2018-12-24T02:01:07.422Z,101698.40
2018-12-24T02:03:35.839Z,101698.40
2018-12-24T02:06:04.186Z,101700.83
2018-12-24T02:08:32.537Z,101702.51
2018-12-24T02:11:01.051Z,101714.85
2018-12-24T02:13:29.396Z,101723.50
2018-12-24T02:15:57.851Z,101726.73
2018-12-24T02:18:26.428Z,101739.11
2018-12-24T02:20:54.772Z,101747.73
2018-12-24T02:23:23.133Z,101747.44
2018-12-24T02:25:51.609Z,101747.73
2018-12-24T02:28:19.954Z,101756.84
2018-12-24T02:30:48.877Z,101761.94
2018-12-24T02:33:17.233Z,101760.62
2018-12-24T02:35:45.631Z,101770.33
2018-12-24T02:38:14.015Z,101774.65
2018-12-24T02:40:42.443Z,101772.22
2018-12-24T02:43:10.814Z,101773.82
2018-12-24T02:45:39.171Z,101778.14
2018-12-24T02:48:08.377Z,101778.97
2018-12-24T02:50:36.769Z,101782.98
2018-12-24T02:53:05.279Z,101791.03
2018-12-24T02:55:33.693Z,101788.60
2018-12-24T02:58:02.078Z,101793.70
2018-12-24T03:00:30.555Z,101793.70
2018-12-24T03:02:58.918Z,101795.36
2018-12-24T03:05:27.287Z,101796.42
2018-12-24T03:07:55.744Z,101803.66
2018-12-24T03:10:24.148Z,101808.50
2018-12-24T03:13:02.290Z,101811.20
2018-12-24T03:15:22.618Z,101812.03
2018-12-24T03:17:51.033Z,101831.16
2018-12-24T03:20:19.420Z,101828.15
2018-12-24T03:22:47.794Z,101838.34
2018-12-24T03:25:16.195Z,101839.14
2018-12-24T03:27:44.606Z,101848.86
2018-12-24T03:30:12.955Z,101857.09
2018-12-24T03:32:41.364Z,101852.16
2018-12-24T03:35:09.725Z,101865.33
2018-12-24T03:37:38.061Z,101866.80
2018-12-24T03:40:06.549Z,101866.80
2018-12-24T03:42:34.906Z,101869.64
2018-12-24T03:45:03.274Z,101896.77
2018-12-24T03:47:31.661Z,101909.38
2018-12-24T03:50:00.044Z,101922.17
2018-12-24T03:52:28.609Z,101934.27
2018-12-24T03:54:56.966Z,101932.85
2018-12-24T03:57:25.321Z,101931.65
2018-12-24T03:59:53.734Z,101931.65
2018-12-24T04:02:22.131Z,101947.19
2018-12-24T04:04:50.510Z,101950.85
2018-12-24T04:07:18.921Z,101960.22
2018-12-24T04:09:47.407Z,101963.95
2018-12-24T04:12:15.767Z,101973.91
2018-12-24T04:14:44.128Z,101972.13
2018-12-24T04:17:12.553Z,101989.22
2018-12-24T04:19:40.972Z,101989.22
2018-12-24T04:22:09.312Z,101993.95
2018-12-24T04:24:37.686Z,101996.01
2018-12-24T04:27:06.071Z,102009.98
2018-12-24T04:29:35.292Z,102017.45
2018-12-24T04:32:03.796Z,102029.75
2018-12-24T04:34:32.188Z,102038.59
2018-12-24T04:37:00.539Z,102042.97
2018-12-24T04:39:28.926Z,102053.98
2018-12-24T04:41:57.279Z,102062.96
2018-12-24T04:44:25.717Z,102064.71
2018-12-24T04:46:54.125Z,102072.75
2018-12-24T04:49:22.469Z,102072.75
2018-12-24T04:51:50.886Z,102084.05
2018-12-24T04:54:19.242Z,102097.42
2018-12-24T04:56:47.620Z,102092.84
2018-12-24T04:59:15.998Z,102092.91
2018-12-24T05:01:44.355Z,102098.28
2018-12-24T05:04:12.747Z,102108.89
2018-12-24T05:06:41.103Z,102118.19
2018-12-24T05:09:09.587Z,102147.91
2018-12-24T05:11:37.949Z,102147.91
2018-12-24T05:14:06.438Z,102159.52
2018-12-24T05:16:34.931Z,102159.52
2018-12-24T05:19:03.284Z,102170.25
2018-12-24T05:21:31.652Z,102170.25
2018-12-24T05:24:00.044Z,102172.02
2018-12-24T05:26:28.391Z,102176.63
2018-12-24T05:28:56.737Z,102177.91
2018-12-24T05:31:25.214Z,102173.65
2018-12-24T05:33:53.598Z,102176.51
2018-12-24T05:36:22.038Z,102171.52
2018-12-24T05:38:50.505Z,102174.44
2018-12-24T05:41:18.980Z,102186.36
2018-12-24T05:43:49.542Z,102199.34
2018-12-24T05:46:17.625Z,102207.09
2018-12-24T05:48:45.970Z,102219.33
2018-12-24T05:51:14.360Z,102231.62
2018-12-24T05:53:42.773Z,102237.50
2018-12-24T05:56:11.155Z,102249.53
2018-12-24T05:58:39.562Z,102262.64
2018-12-24T06:01:08.035Z,102272.47
2018-12-24T06:03:36.422Z,102287.11
2018-12-24T06:06:04.849Z,102289.92
2018-12-24T06:08:33.203Z,102315.13
2018-12-24T06:11:01.559Z,102326.81
2018-12-24T06:13:30.004Z,102330.45
2018-12-24T06:15:58.346Z,102337.92
2018-12-24T06:18:26.743Z,102346.40
2018-12-24T06:20:55.227Z,102349.84
2018-12-24T06:23:23.599Z,102360.27
2018-12-24T06:25:52.381Z,102345.75
2018-12-24T06:28:20.759Z,102334.64
2018-12-24T06:30:49.121Z,102338.81
2018-12-24T06:33:17.614Z,102340.31
2018-12-24T06:35:45.995Z,102348.80
2018-12-24T06:38:14.351Z,102347.62
2018-12-24T06:40:42.772Z,102351.26
2018-12-24T06:43:11.137Z,102352.83
2018-12-24T06:45:39.498Z,102352.97
2018-12-24T06:48:07.922Z,102370.89
2018-12-24T06:50:36.272Z,102373.80
2018-12-24T06:53:04.646Z,102375.45
2018-12-24T06:55:33.149Z,102370.81
2018-12-24T06:58:01.530Z,102367.86
2018-12-24T07:00:29.885Z,102371.19
2018-12-24T07:02:58.289Z,102374.31
2018-12-24T07:05:26.655Z,102383.08
2018-12-24T07:07:55.012Z,102386.13
2018-12-24T07:10:23.495Z,102390.88
2018-12-24T07:12:51.853Z,102395.87
2018-12-24T07:15:20.231Z,102396.29
2018-12-24T07:17:48.748Z,102406.73
2018-12-24T07:20:17.088Z,102405.53
2018-12-24T07:22:45.437Z,102418.53
2018-12-24T07:25:13.819Z,102440.91
2018-12-24T07:27:42.307Z,102441.57
2018-12-24T07:30:10.667Z,102449.21
2018-12-24T07:32:39.024Z,102444.20
2018-12-24T07:35:07.506Z,102451.03
2018-12-24T07:37:35.853Z,102452.78
2018-12-24T07:40:04.202Z,102466.30
2018-12-24T07:42:34.819Z,102472.31
2018-12-24T07:45:03.213Z,102480.26
2018-12-24T07:47:31.608Z,102494.05
2018-12-24T07:50:00.015Z,102509.52
2018-12-24T07:52:28.360Z,102519.11
2018-12-24T07:54:56.852Z,102530.53
2018-12-24T07:57:25.214Z,102539.21
2018-12-24T07:59:53.607Z,102544.06
2018-12-24T08:02:22.094Z,102547.89
2018-12-24T08:04:50.531Z,102547.30
2018-12-24T08:07:18.877Z,102545.86
2018-12-24T08:09:47.281Z,102545.55
2018-12-24T08:12:15.624Z,102549.56
2018-12-24T08:14:44.142Z,102540.72
2018-12-24T08:17:12.488Z,102547.69
2018-12-24T08:19:40.874Z,102555.22
2018-12-24T08:22:09.290Z,102557.06
2018-12-24T08:24:37.761Z,102578.77
2018-12-24T08:27:06.147Z,102577.97
2018-12-24T08:29:34.637Z,102584.88
2018-12-24T08:32:03.010Z,102586.70
2018-12-24T08:34:31.406Z,102590.22
2018-12-24T08:36:59.770Z,102604.94
2018-12-24T08:39:28.149Z,102612.66
2018-12-24T08:41:56.608Z,102626.24
2018-12-24T08:44:25.003Z,102637.23
2018-12-24T08:46:53.372Z,102638.07
2018-12-24T08:49:21.752Z,102644.23
2018-12-24T08:51:50.092Z,102652.89
2018-12-24T08:54:18.511Z,102660.27
2018-12-24T08:56:46.852Z,102659.03
2018-12-24T08:59:15.206Z,102657.48
2018-12-24T09:01:43.619Z,102656.56
2018-12-24T09:04:12.047Z,102668.70
2018-12-24T09:06:40.387Z,102675.28
2018-12-24T09:09:08.793Z,102680.32
2018-12-24T09:11:37.348Z,102688.98
2018-12-24T09:14:05.703Z,102690.91
2018-12-24T09:16:34.656Z,102698.84
2018-12-24T09:19:03.011Z,102704.82
2018-12-24T09:21:31.418Z,102707.60
2018-12-24T09:23:59.772Z,102706.58
2018-12-24T09:26:28.221Z,102709.53
2018-12-24T09:28:56.751Z,102709.45
2018-12-24T09:31:25.071Z,102710.05
2018-12-24T09:33:53.468Z,102708.81
2018-12-24T09:36:21.846Z,102714.58
2018-12-24T09:38:50.228Z,102721.47
2018-12-24T09:41:18.644Z,102721.57
2018-12-24T09:43:47.042Z,102723.81
2018-12-24T09:46:15.464Z,102725.26
2018-12-24T09:48:43.874Z,102722.25
2018-12-24T09:51:12.215Z,102731.19
2018-12-24T09:53:40.630Z,102730.58
2018-12-24T09:56:12.313Z,102734.38
2018-12-24T09:58:39.205Z,102738.06
2018-12-24T10:01:07.557Z,102734.67
2018-12-24T10:03:35.993Z,102734.45
2018-12-24T10:06:06.645Z,102748.04
2018-12-24T10:08:35.059Z,102737.80
2018-12-24T10:11:03.647Z,102745.13
2018-12-24T10:13:32.042Z,102743.34
2018-12-24T10:16:00.417Z,102747.87
2018-12-24T10:18:28.786Z,102754.35
2018-12-24T10:20:57.132Z,102756.09
2018-12-24T10:23:25.507Z,102755.23
2018-12-24T10:25:53.884Z,102755.53
2018-12-24T10:28:22.265Z,102759.06
2018-12-24T10:30:50.817Z,102750.58
2018-12-24T10:33:19.168Z,102753.95
2018-12-24T10:35:47.532Z,102757.25
2018-12-24T10:38:15.944Z,102751.86
2018-12-24T10:40:47.559Z,102766.17
2018-12-24T10:43:16.041Z,102769.78
2018-12-24T10:45:44.389Z,102771.41
2018-12-24T10:48:12.788Z,102779.04
2018-12-24T10:50:41.836Z,102780.34
2018-12-24T10:53:10.192Z,102776.51
2018-12-24T10:55:38.686Z,102773.61
2018-12-24T10:58:07.037Z,102776.97
2018-12-24T11:00:35.504Z,102780.45
2018-12-24T11:03:03.881Z,102785.47
2018-12-24T11:05:32.957Z,102788.83
2018-12-24T11:08:01.345Z,102788.92
2018-12-24T11:10:30.358Z,102785.83
2018-12-24T11:12:58.856Z,102783.01
2018-12-24T11:15:27.206Z,102787.39
2018-12-24T11:17:55.609Z,102785.95
2018-12-24T11:20:24.130Z,102792.00
2018-12-24T11:22:52.569Z,102790.74
2018-12-24T11:25:20.942Z,102791.64
2018-12-24T11:27:49.428Z,102792.76
2018-12-24T11:30:17.827Z,102782.41
2018-12-24T11:32:46.222Z,102780.34
2018-12-24T11:35:14.693Z,102780.34
2018-12-24T11:37:43.081Z,102795.38
2018-12-24T11:40:11.809Z,102798.19
2018-12-24T11:42:40.229Z,102799.20
2018-12-24T11:45:08.702Z,102799.37
2018-12-24T11:47:37.145Z,102798.03
2018-12-24T11:50:05.873Z,102800.58
2018-12-24T11:52:34.376Z,102800.35
2018-12-24T11:55:02.774Z,102816.27
2018-12-24T11:57:31.128Z,102816.27
2018-12-24T11:59:59.511Z,102810.22
2018-12-24T12:02:27.993Z,102810.22
2018-12-24T12:04:57.035Z,102819.00
2018-12-24T12:07:25.389Z,102819.02
2018-12-24T12:09:53.835Z,102806.94
2018-12-24T12:12:22.218Z,102814.70
2018-12-24T12:14:50.561Z,102814.70
2018-12-24T12:17:18.989Z,102824.50
2018-12-24T12:19:48.290Z,102819.40
2018-12-24T12:22:16.688Z,102819.63
2018-12-24T12:25:24.659Z,102821.73
2018-12-24T12:27:52.931Z,102819.23
2018-12-24T12:30:21.216Z,102822.72
2018-12-24T12:32:49.477Z,102822.72
2018-12-24T12:35:17.780Z,102822.72
2018-12-24T12:37:46.310Z,102826.36
2018-12-24T12:40:14.574Z,102826.36
2018-12-24T12:42:42.891Z,102835.70
2018-12-24T12:45:11.234Z,102835.70
2018-12-24T12:47:39.499Z,102833.16
2018-12-24T12:50:07.795Z,102833.16
2018-12-24T12:52:36.713Z,102837.27
2018-12-24T12:55:05.725Z,102850.25
2018-12-24T12:57:34.020Z,102846.83
2018-12-24T13:00:02.301Z,102849.94
2018-12-24T13:02:30.686Z,102843.67
2018-12-24T13:04:58.989Z,102857.84
2018-12-24T13:07:27.262Z,102874.84
2018-12-24T13:09:56.103Z,102878.48
2018-12-24T13:12:24.349Z,102878.48
2018-12-24T13:14:52.626Z,102878.02
2018-12-24T13:17:21.540Z,102869.23
2018-12-24T13:19:49.834Z,102879.38
2018-12-24T13:22:18.131Z,102877.22
2018-12-24T13:24:49.209Z,102872.06
2018-12-24T13:27:17.451Z,102874.98
2018-12-24T13:29:45.728Z,102884.18
2018-12-24T13:32:13.993Z,102879.84
2018-12-24T13:34:42.265Z,102871.98
2018-12-24T13:37:10.544Z,102878.72
2018-12-24T13:39:38.849Z,102880.87
2018-12-24T13:42:07.452Z,102889.12
2018-12-24T13:44:35.839Z,102887.12
2018-12-24T13:47:04.119Z,102880.97
2018-12-24T13:49:32.688Z,102874.31
2018-12-24T13:52:01.022Z,102885.45
2018-12-24T13:54:30.089Z,102880.64
2018-12-24T13:56:58.316Z,102883.95
2018-12-24T13:59:26.764Z,102904.87
2018-12-24T14:01:54.998Z,102904.87
2018-12-24T14:04:23.242Z,102910.34
2018-12-24T14:06:51.601Z,102919.56
2018-12-24T14:09:19.852Z,102911.98
2018-12-24T14:11:48.135Z,102913.10
2018-12-24T14:14:16.434Z,102912.06
2018-12-24T14:16:44.740Z,102917.67
2018-12-24T14:19:12.990Z,102924.64
2018-12-24T14:21:41.301Z,102929.19
2018-12-24T14:24:09.568Z,102918.14
2018-12-24T14:26:37.816Z,102919.99
2018-12-24T14:29:06.118Z,102916.48
2018-12-24T14:31:34.368Z,102923.22
2018-12-24T14:34:02.637Z,102908.64
2018-12-24T14:36:30.889Z,102909.38
2018-12-24T14:38:59.939Z,102907.16
2018-12-24T14:41:28.306Z,102906.77
2018-12-24T14:43:56.555Z,102914.20
2018-12-24T14:46:25.768Z,102908.20
2018-12-24T14:48:54.502Z,102908.20
2018-12-24T14:51:22.744Z,102907.31
2018-12-24T14:53:50.986Z,102907.31
2018-12-24T14:56:19.293Z,102911.66
2018-12-24T14:58:47.541Z,102918.31
2018-12-24T15:01:15.824Z,102913.00
2018-12-24T15:03:44.205Z,102913.00
2018-12-24T15:06:12.446Z,102920.69
2018-12-24T15:08:40.690Z,102925.22
2018-12-24T15:11:09.046Z,102932.14
2018-12-24T15:13:37.346Z,102943.58
2018-12-24T15:16:05.609Z,102944.03
2018-12-24T15:18:33.910Z,102944.03
2018-12-24T15:21:02.203Z,102939.92
2018-12-24T15:23:30.478Z,102937.88
2018-12-24T15:25:58.843Z,102937.88
2018-12-24T15:28:27.090Z,102941.09
2018-12-24T15:30:55.367Z,102948.19
2018-12-24T15:33:23.651Z,102958.19
2018-12-24T15:35:51.903Z,102956.84
2018-12-24T15:38:20.292Z,102942.05
2018-12-24T15:40:48.578Z,102937.12
2018-12-24T15:43:17.109Z,102939.20
2018-12-24T15:45:45.414Z,102957.69
2018-12-24T15:48:13.666Z,102958.19
2018-12-24T15:50:41.916Z,102958.19
2018-12-24T15:53:10.784Z,102992.11
2018-12-24T15:55:39.198Z,102992.11
2018-12-24T15:58:07.452Z,102969.00
2018-12-24T16:00:35.827Z,102974.09
2018-12-24T16:03:04.947Z,102974.09
2018-12-24T16:05:33.259Z,102972.39
2018-12-24T16:08:01.533Z,102956.98
2018-12-24T16:10:29.865Z,102946.38
2018-12-24T16:12:58.130Z,102960.04
2018-12-24T16:15:26.424Z,102960.04
2018-12-24T16:17:54.808Z,102967.27
2018-12-24T16:20:23.067Z,102967.27
2018-12-24T16:22:51.346Z,102972.05
2018-12-24T16:25:19.710Z,102991.46
2018-12-24T16:27:47.957Z,102986.17
2018-12-24T16:30:16.273Z,102986.17
2018-12-24T16:32:44.640Z,102974.06
2018-12-24T16:35:12.902Z,102974.06
2018-12-24T16:37:41.158Z,102986.64
2018-12-24T16:40:09.533Z,102986.64
2018-12-24T16:42:37.789Z,102995.53
2018-12-24T16:45:06.062Z,103007.13
2018-12-24T16:47:34.374Z,103025.50
2018-12-24T16:50:02.681Z,103030.70
2018-12-24T16:52:30.977Z,103040.29
2018-12-24T16:54:59.214Z,103029.31
2018-12-24T16:57:27.495Z,103024.24
2018-12-24T16:59:56.672Z,103022.59
2018-12-24T17:02:24.965Z,103029.84
2018-12-24T17:04:53.249Z,103029.84
2018-12-24T17:07:21.579Z,103036.80
2018-12-24T17:09:49.843Z,103036.80
2018-12-24T17:12:18.204Z,103038.95
2018-12-24T17:14:46.502Z,103038.95
2018-12-24T17:17:15.668Z,103038.64
2018-12-24T17:19:43.926Z,103038.64
2018-12-24T17:22:12.224Z,103044.23
2018-12-24T17:24:40.518Z,103048.27
2018-12-24T17:27:08.768Z,103041.86
2018-12-24T17:29:37.203Z,103047.16
2018-12-24T17:32:05.443Z,103055.31
2018-12-24T17:34:33.718Z,103057.37
2018-12-24T17:37:02.027Z,103066.96
2018-12-24T17:39:30.260Z,103066.96
2018-12-24T17:41:59.141Z,103064.67
2018-12-24T17:44:27.390Z,103072.12
2018-12-24T17:46:55.868Z,103072.88
2018-12-24T17:49:24.233Z,103076.91
2018-12-24T17:51:52.482Z,103081.25
2018-12-24T17:54:20.778Z,103064.72
2018-12-24T17:56:49.061Z,103064.72
2018-12-24T17:59:17.366Z,103066.73
2018-12-24T18:01:45.711Z,103072.96
2018-12-24T18:04:13.955Z,103061.72
2018-12-24T18:06:42.609Z,103064.94
2018-12-24T18:09:10.904Z,103063.59
2018-12-24T18:11:39.169Z,103066.70
2018-12-24T18:14:07.483Z,103066.70
2018-12-24T18:16:35.733Z,103055.67
2018-12-24T18:19:04.035Z,103066.70
2018-12-24T18:21:32.338Z,103066.70
2018-12-24T18:24:00.610Z,103041.20
2018-12-24T18:26:28.865Z,103041.20
2018-12-24T18:28:57.265Z,103071.13
2018-12-24T18:31:25.557Z,103064.19
2018-12-24T18:33:53.829Z,103064.19
2018-12-24T18:36:22.130Z,103069.11
2018-12-24T18:38:50.390Z,103067.55
2018-12-24T18:41:18.689Z,103067.55
2018-12-24T18:43:47.003Z,103054.14
2018-12-24T18:46:15.260Z,103068.71
2018-12-24T18:48:43.526Z,103073.47
2018-12-24T18:51:11.776Z,103076.91
2018-12-24T18:53:40.128Z,103092.20
2018-12-24T18:56:08.401Z,103086.02
2018-12-24T18:58:36.657Z,103091.08
2018-12-24T19:01:05.155Z,103087.93
2018-12-24T19:03:33.397Z,103087.93
2018-12-24T19:06:01.705Z,103102.58
2018-12-24T19:08:30.081Z,103122.66
2018-12-24T19:10:58.385Z,103116.38
2018-12-24T19:13:26.664Z,103116.38
2018-12-24T19:15:55.378Z,103120.69
2018-12-24T19:18:23.626Z,103120.69
2018-12-24T19:20:51.874Z,103124.50
2018-12-24T19:23:20.153Z,103119.06
2018-12-24T19:25:48.450Z,103133.41
2018-12-24T19:28:16.830Z,103129.06
2018-12-24T19:30:45.083Z,103131.35
2018-12-24T19:33:13.373Z,103135.47
2018-12-24T19:35:41.658Z,103134.13
2018-12-24T19:38:10.100Z,103140.57
2018-12-24T19:40:38.338Z,103146.32
2018-12-24T19:43:06.654Z,103141.47
2018-12-24T19:45:34.905Z,103138.16
2018-12-24T19:48:03.173Z,103138.16
2018-12-24T19:50:31.435Z,103128.57
2018-12-24T19:52:59.713Z,103137.94
2018-12-24T19:55:27.968Z,103133.09
2018-12-24T19:57:56.401Z,103140.57
2018-12-24T20:00:24.652Z,103139.64
2018-12-24T20:02:52.906Z,103136.27
2018-12-24T20:05:21.202Z,103139.64
2018-12-24T20:07:49.455Z,103131.48
2018-12-24T20:10:17.699Z,103134.42
2018-12-24T20:12:46.259Z,103134.42
2018-12-24T20:15:14.510Z,103136.52
2018-12-24T20:17:42.757Z,103143.51
2018-12-24T20:20:11.169Z,103146.11
2018-12-24T20:22:39.449Z,103146.01
2018-12-24T20:25:07.692Z,103140.85
2018-12-24T20:27:35.964Z,103145.73
2018-12-24T20:30:04.990Z,103147.45
2018-12-24T20:32:33.257Z,103147.45
2018-12-24T20:35:01.513Z,103143.63
2018-12-24T20:37:29.829Z,103155.41
2018-12-24T20:39:58.081Z,103154.63
2018-12-24T20:42:26.408Z,103154.63
2018-12-24T20:44:54.715Z,103149.06
2018-12-24T20:47:23.033Z,103156.09
2018-12-24T20:49:51.413Z,103156.09
2018-12-24T20:52:20.330Z,103166.31
2018-12-24T20:54:48.582Z,103166.53
2018-12-24T20:57:16.959Z,103167.09
2018-12-24T20:59:45.228Z,103175.52
2018-12-24T21:02:13.497Z,103180.61
2018-12-24T21:04:41.787Z,103179.48
2018-12-24T21:07:10.937Z,103179.48
2018-12-24T21:09:39.990Z,103168.83
2018-12-24T21:12:08.279Z,103178.42
2018-12-24T21:14:36.821Z,103176.27
2018-12-24T21:17:05.225Z,103183.52
2018-12-24T21:19:33.506Z,103183.52
2018-12-24T21:22:01.833Z,103174.92
2018-12-24T21:24:30.800Z,103176.98
2018-12-24T21:26:59.061Z,103169.45
2018-12-24T21:29:27.304Z,103171.83
2018-12-24T21:31:55.733Z,103178.76
2018-12-24T21:34:23.976Z,103174.10
2018-12-24T21:36:52.251Z,103165.66
2018-12-24T21:39:20.634Z,103152.03
2018-12-24T21:41:49.065Z,103158.63
2018-12-24T21:44:17.382Z,103158.63
2018-12-24T21:46:45.658Z,103146.86
2018-12-24T21:49:14.039Z,103146.86
2018-12-24T21:51:42.366Z,103150.26
2018-12-24T21:54:10.763Z,103147.58
2018-12-24T21:56:39.055Z,103127.95
2018-12-24T21:59:07.301Z,103134.14
2018-12-24T22:01:35.598Z,103132.30
2018-12-24T22:04:03.986Z,103122.59
2018-12-24T22:06:32.337Z,103127.55
2018-12-24T22:09:00.579Z,103127.55
2018-12-24T22:11:29.895Z,103128.79
2018-12-24T22:13:58.143Z,103132.51
2018-12-24T22:16:26.676Z,103134.40
2018-12-24T22:18:54.931Z,103134.40
2018-12-24T22:21:23.189Z,103137.91
2018-12-24T22:23:51.568Z,103143.93
2018-12-24T22:26:19.818Z,103143.93
2018-12-24T22:28:48.068Z,103148.88
2018-12-24T22:31:16.474Z,103137.03
2018-12-24T22:33:44.929Z,103137.03
2018-12-24T22:36:13.745Z,103139.41
2018-12-24T22:38:42.377Z,103133.34
2018-12-24T22:41:10.632Z,103133.23
2018-12-24T22:43:39.342Z,103131.80
2018-12-24T22:46:07.610Z,103122.83
2018-12-24T22:48:40.599Z,103120.75
2018-12-24T22:51:05.884Z,103123.33
2018-12-24T22:53:34.133Z,103125.42
2018-12-24T22:56:02.442Z,103131.80
2018-12-24T22:58:30.685Z,103120.97
2018-12-24T23:00:59.108Z,103122.31
2018-12-24T23:03:27.401Z,103117.97
2018-12-24T23:05:55.665Z,103117.44
2018-12-24T23:08:24.042Z,103115.92
2018-12-24T23:10:52.342Z,103115.17
2018-12-24T23:13:20.626Z,103117.47
2018-12-24T23:15:49.693Z,103119.41
2018-12-24T23:18:18.036Z,103111.46
2018-12-24T23:20:46.323Z,103106.73
2018-12-24T23:23:14.590Z,103103.93
2018-12-24T23:25:42.885Z,103108.34
2018-12-24T23:28:11.140Z,103115.68
2018-12-24T23:30:39.475Z,103105.05
2018-12-24T23:33:07.709Z,103105.05
2018-12-24T23:35:36.030Z,103123.62
2018-12-24T23:38:04.366Z,103120.41
2018-12-24T23:40:32.631Z,103124.25
2018-12-24T23:43:00.879Z,103109.38
2018-12-24T23:45:29.268Z,103111.31
2018-12-24T23:47:57.631Z,103113.28
2018-12-24T23:50:25.872Z,103105.45
2018-12-24T23:52:54.149Z,103109.75
2018-12-24T23:55:22.451Z,103108.73
2018-12-24T23:57:50.919Z,103110.70
